sensor_id;sensor_type;location;lat;lon;timestamp;pressure;altitude;pressure_sealevel;temperature;humidity
6096;BME280;25081;42.698;23.298;2024-03-25T00:01:14;94076.21;;;3.45;100.00
6096;BME280;25081;42.698;23.298;2024-03-25T00:03:22;94082.02;;;3.38;100.00
6096;BME280;25081;42.698;23.298;2024-03-25T00:05:31;94080.06;;;3.36;100.00
6096;BME280;25081;42.698;23.298;2024-03-25T00:07:40;94083.93;;;3.40;100.00
6096;BME280;25081;42.698;23.298;2024-03-25T00:09:48;94069.54;;;3.49;100.00
6096;BME280;25081;42.698;23.298;2024-03-25T00:11:57;94066.00;;;3.39;100.00
6096;BME280;25081;42.698;23.298;2024-03-25T00:14:06;94078.03;;;3.44;100.00
6096;BME280;25081;42.698;23.298;2024-03-25T00:16:15;94074.30;;;3.23;100.00
6096;BME280;25081;42.698;23.298;2024-03-25T00:18:24;94068.84;;;3.31;100.00
6096;BME280;25081;42.698;23.298;2024-03-25T00:20:32;94052.33;;;3.00;100.00
6096;BME280;25081;42.698;23.298;2024-03-25T00:22:41;94061.75;;;3.32;100.00
6096;BME280;25081;42.698;23.298;2024-03-25T00:24:50;94059.12;;;3.19;100.00
6096;BME280;25081;42.698;23.298;2024-03-25T00:26:59;94057.06;;;3.27;100.00
6096;BME280;25081;42.698;23.298;2024-03-25T00:29:07;94027.20;;;3.18;100.00
6096;BME280;25081;42.698;23.298;2024-03-25T00:31:16;94049.06;;;3.44;100.00
6096;BME280;25081;42.698;23.298;2024-03-25T00:33:25;94045.13;;;3.31;100.00
6096;BME280;25081;42.698;23.298;2024-03-25T00:35:33;94043.19;;;3.36;100.00
6096;BME280;25081;42.698;23.298;2024-03-25T00:37:42;94030.95;;;3.39;100.00
6096;BME280;25081;42.698;23.298;2024-03-25T00:39:51;94022.72;;;3.58;100.00
6096;BME280;25081;42.698;23.298;2024-03-25T00:41:59;94029.09;;;3.59;100.00
6096;BME280;25081;42.698;23.298;2024-03-25T00:44:08;94029.39;;;3.54;100.00
6096;BME280;25081;42.698;23.298;2024-03-25T00:46:17;94033.42;;;3.69;100.00
6096;BME280;25081;42.698;23.298;2024-03-25T00:48:26;94031.17;;;3.80;100.00
6096;BME280;25081;42.698;23.298;2024-03-25T00:50:34;94032.58;;;3.76;100.00
6096;BME280;25081;42.698;23.298;2024-03-25T00:52:43;94024.67;;;3.76;100.00
6096;BME280;25081;42.698;23.298;2024-03-25T00:54:52;94031.59;;;3.77;100.00
6096;BME280;25081;42.698;23.298;2024-03-25T00:57:00;94033.45;;;3.92;100.00
6096;BME280;25081;42.698;23.298;2024-03-25T00:59:09;94029.84;;;3.86;100.00
6096;BME280;25081;42.698;23.298;2024-03-25T01:01:18;94017.77;;;3.88;100.00
6096;BME280;25081;42.698;23.298;2024-03-25T01:03:27;94017.61;;;3.69;100.00
6096;BME280;25081;42.698;23.298;2024-03-25T01:05:35;94019.27;;;3.57;100.00
6096;BME280;25081;42.698;23.298;2024-03-25T01:07:44;94008.34;;;3.76;100.00
6096;BME280;25081;42.698;23.298;2024-03-25T01:09:53;94002.03;;;3.90;100.00
6096;BME280;25081;42.698;23.298;2024-03-25T01:12:01;93998.31;;;4.05;100.00
6096;BME280;25081;42.698;23.298;2024-03-25T01:14:10;93984.22;;;4.08;100.00
6096;BME280;25081;42.698;23.298;2024-03-25T01:16:19;93985.16;;;4.20;100.00
6096;BME280;25081;42.698;23.298;2024-03-25T01:18:28;93970.80;;;4.32;100.00
6096;BME280;25081;42.698;23.298;2024-03-25T01:20:36;93976.20;;;4.28;100.00
6096;BME280;25081;42.698;23.298;2024-03-25T01:22:45;93972.63;;;4.16;100.00
6096;BME280;25081;42.698;23.298;2024-03-25T01:24:54;93976.18;;;4.35;100.00
6096;BME280;25081;42.698;23.298;2024-03-25T01:27:03;93965.27;;;4.40;100.00
6096;BME280;25081;42.698;23.298;2024-03-25T01:29:12;93973.45;;;4.48;99.89
6096;BME280;25081;42.698;23.298;2024-03-25T01:31:21;93974.73;;;4.54;99.69
6096;BME280;25081;42.698;23.298;2024-03-25T01:33:30;93983.40;;;4.62;99.24
6096;BME280;25081;42.698;23.298;2024-03-25T01:35:39;93986.00;;;4.68;99.89
6096;BME280;25081;42.698;23.298;2024-03-25T01:37:47;93983.19;;;4.79;99.15
6096;BME280;25081;42.698;23.298;2024-03-25T01:39:56;93989.71;;;4.76;99.24
6096;BME280;25081;42.698;23.298;2024-03-25T01:42:05;93997.33;;;4.75;99.62
6096;BME280;25081;42.698;23.298;2024-03-25T01:44:14;94005.55;;;4.76;98.85
6096;BME280;25081;42.698;23.298;2024-03-25T01:46:23;94007.16;;;4.62;99.43
6096;BME280;25081;42.698;23.298;2024-03-25T01:48:32;94010.53;;;4.75;99.81
6096;BME280;25081;42.698;23.298;2024-03-25T01:50:42;93996.16;;;4.80;99.14
6096;BME280;25081;42.698;23.298;2024-03-25T01:52:50;93989.75;;;4.85;99.00
6096;BME280;25081;42.698;23.298;2024-03-25T01:54:59;93995.91;;;4.88;98.81
6096;BME280;25081;42.698;23.298;2024-03-25T01:57:07;93995.36;;;4.80;99.03
6096;BME280;25081;42.698;23.298;2024-03-25T01:59:16;94008.02;;;4.55;99.02
6096;BME280;25081;42.698;23.298;2024-03-25T02:03:43;94024.26;;;4.52;99.15
6096;BME280;25081;42.698;23.298;2024-03-25T02:05:54;94030.45;;;4.55;99.04
6096;BME280;25081;42.698;23.298;2024-03-25T02:08:02;94029.17;;;4.26;98.28
6096;BME280;25081;42.698;23.298;2024-03-25T02:10:11;94035.94;;;4.09;98.29
6096;BME280;25081;42.698;23.298;2024-03-25T02:12:19;94031.12;;;3.93;99.15
6096;BME280;25081;42.698;23.298;2024-03-25T02:14:28;94037.62;;;3.84;99.17
6096;BME280;25081;42.698;23.298;2024-03-25T02:16:37;94037.23;;;3.87;99.59
6096;BME280;25081;42.698;23.298;2024-03-25T02:18:46;94034.91;;;3.88;100.00
6096;BME280;25081;42.698;23.298;2024-03-25T02:20:54;94028.99;;;3.92;99.50
6096;BME280;25081;42.698;23.298;2024-03-25T02:23:04;94023.61;;;3.61;99.11
6096;BME280;25081;42.698;23.298;2024-03-25T02:25:12;93903.78;;;3.05;99.26
6096;BME280;25081;42.698;23.298;2024-03-25T02:27:21;93997.91;;;3.43;99.90
6096;BME280;25081;42.698;23.298;2024-03-25T02:29:34;94010.44;;;3.54;99.70
6096;BME280;25081;42.698;23.298;2024-03-25T02:31:43;94010.34;;;3.58;99.56
6096;BME280;25081;42.698;23.298;2024-03-25T02:33:52;94022.59;;;3.55;99.95
6096;BME280;25081;42.698;23.298;2024-03-25T02:36:00;94017.53;;;3.54;99.75
6096;BME280;25081;42.698;23.298;2024-03-25T02:38:09;94025.61;;;3.72;100.00
6096;BME280;25081;42.698;23.298;2024-03-25T02:40:18;94021.44;;;3.73;99.79
6096;BME280;25081;42.698;23.298;2024-03-25T02:42:27;94021.44;;;3.73;99.42
6096;BME280;25081;42.698;23.298;2024-03-25T02:44:36;93908.15;;;3.02;98.90
6096;BME280;25081;42.698;23.298;2024-03-25T02:46:44;94025.26;;;3.84;99.07
6096;BME280;25081;42.698;23.298;2024-03-25T02:48:53;94015.22;;;3.90;99.11
6096;BME280;25081;42.698;23.298;2024-03-25T02:51:02;94024.22;;;3.98;98.62
6096;BME280;25081;42.698;23.298;2024-03-25T02:53:11;94032.20;;;4.08;98.77
6096;BME280;25081;42.698;23.298;2024-03-25T02:55:19;94041.23;;;4.02;98.62
6096;BME280;25081;42.698;23.298;2024-03-25T02:57:28;94040.43;;;3.95;98.17
6096;BME280;25081;42.698;23.298;2024-03-25T02:59:37;94037.55;;;4.10;98.15
6096;BME280;25081;42.698;23.298;2024-03-25T03:01:46;94033.89;;;4.11;97.85
6096;BME280;25081;42.698;23.298;2024-03-25T03:03:54;94041.00;;;4.33;97.39
6096;BME280;25081;42.698;23.298;2024-03-25T03:06:03;94045.66;;;4.15;96.48
6096;BME280;25081;42.698;23.298;2024-03-25T03:08:12;94040.78;;;4.12;97.68
6096;BME280;25081;42.698;23.298;2024-03-25T03:10:21;94042.47;;;3.93;97.92
6096;BME280;25081;42.698;23.298;2024-03-25T03:12:29;94040.27;;;3.84;98.27
6096;BME280;25081;42.698;23.298;2024-03-25T03:14:38;94042.81;;;3.88;97.05
6096;BME280;25081;42.698;23.298;2024-03-25T03:16:47;94044.48;;;3.69;97.02
6096;BME280;25081;42.698;23.298;2024-03-25T03:18:56;94043.63;;;3.75;96.94
6096;BME280;25081;42.698;23.298;2024-03-25T03:21:05;94033.67;;;3.84;96.74
6096;BME280;25081;42.698;23.298;2024-03-25T03:23:14;94012.00;;;3.75;96.46
6096;BME280;25081;42.698;23.298;2024-03-25T03:25:22;94034.27;;;3.86;96.31
6096;BME280;25081;42.698;23.298;2024-03-25T03:27:31;94045.88;;;3.78;96.31
6096;BME280;25081;42.698;23.298;2024-03-25T03:29:40;94042.95;;;3.70;95.93
6096;BME280;25081;42.698;23.298;2024-03-25T03:31:49;94060.55;;;3.83;96.19
6096;BME280;25081;42.698;23.298;2024-03-25T03:33:57;94059.23;;;3.83;95.86
6096;BME280;25081;42.698;23.298;2024-03-25T03:36:07;94048.52;;;3.78;95.26
6096;BME280;25081;42.698;23.298;2024-03-25T03:38:16;94066.20;;;3.93;95.36
6096;BME280;25081;42.698;23.298;2024-03-25T03:40:24;94066.50;;;3.94;94.65
6096;BME280;25081;42.698;23.298;2024-03-25T03:42:33;94073.89;;;4.01;95.20
6096;BME280;25081;42.698;23.298;2024-03-25T03:44:42;94073.07;;;4.08;95.38
6096;BME280;25081;42.698;23.298;2024-03-25T03:46:50;94072.29;;;4.23;94.49
6096;BME280;25081;42.698;23.298;2024-03-25T03:48:59;94085.91;;;4.13;94.04
6096;BME280;25081;42.698;23.298;2024-03-25T03:51:08;94080.25;;;4.16;93.80
6096;BME280;25081;42.698;23.298;2024-03-25T03:53:17;94082.84;;;4.23;94.13
6096;BME280;25081;42.698;23.298;2024-03-25T03:55:25;94079.98;;;4.24;94.01
6096;BME280;25081;42.698;23.298;2024-03-25T03:57:34;94083.83;;;4.06;93.29
6096;BME280;25081;42.698;23.298;2024-03-25T03:59:42;94071.46;;;4.00;92.63
6096;BME280;25081;42.698;23.298;2024-03-25T04:01:51;94078.09;;;3.87;92.20
6096;BME280;25081;42.698;23.298;2024-03-25T04:04:00;94093.91;;;3.87;92.20
6096;BME280;25081;42.698;23.298;2024-03-25T04:06:12;94099.75;;;3.95;92.89
6096;BME280;25081;42.698;23.298;2024-03-25T04:08:21;94100.20;;;4.15;92.14
6096;BME280;25081;42.698;23.298;2024-03-25T04:10:29;94112.62;;;4.08;92.16
6096;BME280;25081;42.698;23.298;2024-03-25T04:12:38;94115.66;;;4.05;92.00
6096;BME280;25081;42.698;23.298;2024-03-25T04:14:48;94110.16;;;4.13;92.84
6096;BME280;25081;42.698;23.298;2024-03-25T04:16:57;94103.25;;;4.25;92.76
6096;BME280;25081;42.698;23.298;2024-03-25T04:19:06;94100.84;;;4.17;92.38
6096;BME280;25081;42.698;23.298;2024-03-25T04:21:15;94104.58;;;4.18;93.02
6096;BME280;25081;42.698;23.298;2024-03-25T04:23:23;94106.80;;;4.21;92.78
6096;BME280;25081;42.698;23.298;2024-03-25T04:25:32;94122.45;;;4.16;92.54
6096;BME280;25081;42.698;23.298;2024-03-25T04:27:41;94135.13;;;4.17;92.16
6096;BME280;25081;42.698;23.298;2024-03-25T04:29:49;94135.97;;;3.97;92.00
6096;BME280;25081;42.698;23.298;2024-03-25T04:31:58;94132.02;;;3.97;92.69
6096;BME280;25081;42.698;23.298;2024-03-25T04:34:07;94128.11;;;4.20;92.46
6096;BME280;25081;42.698;23.298;2024-03-25T04:36:16;94106.33;;;4.09;91.80
6096;BME280;25081;42.698;23.298;2024-03-25T04:38:25;94138.58;;;4.11;91.17
6096;BME280;25081;42.698;23.298;2024-03-25T04:40:33;94149.59;;;4.23;91.52
6096;BME280;25081;42.698;23.298;2024-03-25T04:42:42;94133.00;;;4.10;91.11
6096;BME280;25081;42.698;23.298;2024-03-25T04:44:51;94171.80;;;4.31;90.98
6096;BME280;25081;42.698;23.298;2024-03-25T04:46:59;94175.66;;;4.29;91.00
6096;BME280;25081;42.698;23.298;2024-03-25T04:49:08;94181.62;;;4.34;91.33
6096;BME280;25081;42.698;23.298;2024-03-25T04:51:17;94177.58;;;4.38;90.87
6096;BME280;25081;42.698;23.298;2024-03-25T04:53:25;94176.98;;;4.22;90.99
6096;BME280;25081;42.698;23.298;2024-03-25T04:55:34;94186.77;;;4.15;90.95
6096;BME280;25081;42.698;23.298;2024-03-25T04:57:43;94181.66;;;4.20;91.39
6096;BME280;25081;42.698;23.298;2024-03-25T04:59:52;94177.41;;;4.19;90.68
6096;BME280;25081;42.698;23.298;2024-03-25T05:02:00;94176.09;;;4.26;90.72
6096;BME280;25081;42.698;23.298;2024-03-25T05:04:09;94179.88;;;4.50;90.22
6096;BME280;25081;42.698;23.298;2024-03-25T05:06:18;94176.56;;;4.32;89.75
6096;BME280;25081;42.698;23.298;2024-03-25T05:08:27;94175.97;;;4.30;90.16
6096;BME280;25081;42.698;23.298;2024-03-25T05:10:36;94174.68;;;4.52;89.69
6096;BME280;25081;42.698;23.298;2024-03-25T05:12:45;94180.13;;;4.35;89.13
6096;BME280;25081;42.698;23.298;2024-03-25T05:14:53;94182.64;;;4.46;89.67
6096;BME280;25081;42.698;23.298;2024-03-25T05:17:02;94185.49;;;4.38;89.65
6096;BME280;25081;42.698;23.298;2024-03-25T05:19:11;94176.86;;;4.40;88.76
6096;BME280;25081;42.698;23.298;2024-03-25T05:21:19;94181.91;;;4.54;88.42
6096;BME280;25081;42.698;23.298;2024-03-25T05:23:28;94182.07;;;4.59;88.29
6096;BME280;25081;42.698;23.298;2024-03-25T05:25:37;94179.34;;;4.64;87.56
6096;BME280;25081;42.698;23.298;2024-03-25T05:27:45;94185.27;;;5.83;90.86
6096;BME280;25081;42.698;23.298;2024-03-25T05:29:54;94187.88;;;7.75;86.54
6096;BME280;25081;42.698;23.298;2024-03-25T05:32:03;94190.12;;;6.01;80.13
6096;BME280;25081;42.698;23.298;2024-03-25T05:34:11;94191.47;;;5.54;83.02
6096;BME280;25081;42.698;23.298;2024-03-25T05:36:20;94211.16;;;5.04;84.40
6096;BME280;25081;42.698;23.298;2024-03-25T05:38:29;94197.31;;;4.86;84.67
6096;BME280;25081;42.698;23.298;2024-03-25T05:40:37;94213.67;;;4.86;85.76
6096;BME280;25081;42.698;23.298;2024-03-25T05:42:46;94206.34;;;4.59;86.46
6096;BME280;25081;42.698;23.298;2024-03-25T05:44:55;94218.14;;;4.43;86.29
6096;BME280;25081;42.698;23.298;2024-03-25T05:47:04;94214.19;;;4.79;85.55
6096;BME280;25081;42.698;23.298;2024-03-25T05:49:13;94224.47;;;4.71;85.66
6096;BME280;25081;42.698;23.298;2024-03-25T05:51:21;94231.27;;;4.76;86.07
6096;BME280;25081;42.698;23.298;2024-03-25T05:53:30;94241.31;;;4.77;85.69
6096;BME280;25081;42.698;23.298;2024-03-25T05:55:39;94234.44;;;5.21;84.55
6096;BME280;25081;42.698;23.298;2024-03-25T05:57:47;94235.06;;;5.23;84.00
6096;BME280;25081;42.698;23.298;2024-03-25T05:59:56;94240.23;;;5.42;83.43
6096;BME280;25081;42.698;23.298;2024-03-25T06:02:05;94240.99;;;5.34;82.67
6096;BME280;25081;42.698;23.298;2024-03-25T06:04:14;94243.77;;;5.45;81.95
6096;BME280;25081;42.698;23.298;2024-03-25T06:06:23;94239.98;;;5.66;82.33
6096;BME280;25081;42.698;23.298;2024-03-25T06:08:31;94238.44;;;5.68;81.17
6096;BME280;25081;42.698;23.298;2024-03-25T06:10:40;94223.96;;;5.61;82.35
6096;BME280;25081;42.698;23.298;2024-03-25T06:12:49;94245.09;;;5.77;81.17
6096;BME280;25081;42.698;23.298;2024-03-25T06:14:57;94252.88;;;5.72;81.54
6096;BME280;25081;42.698;23.298;2024-03-25T06:17:06;94262.55;;;5.85;81.33
6096;BME280;25081;42.698;23.298;2024-03-25T06:19:14;94262.86;;;5.48;81.09
6096;BME280;25081;42.698;23.298;2024-03-25T06:21:23;94263.32;;;5.38;81.79
6096;BME280;25081;42.698;23.298;2024-03-25T06:23:32;94263.56;;;5.68;81.89
6096;BME280;25081;42.698;23.298;2024-03-25T06:25:40;94263.16;;;5.33;81.32
6096;BME280;25081;42.698;23.298;2024-03-25T06:27:49;94265.41;;;5.52;81.73
6096;BME280;25081;42.698;23.298;2024-03-25T06:29:58;94270.45;;;5.60;81.11
6096;BME280;25081;42.698;23.298;2024-03-25T06:32:07;94271.65;;;5.80;80.45
6096;BME280;25081;42.698;23.298;2024-03-25T06:37:08;94278.64;;;6.15;78.06
6096;BME280;25081;42.698;23.298;2024-03-25T06:39:16;94289.11;;;6.03;78.22
6096;BME280;25081;42.698;23.298;2024-03-25T06:41:25;94283.23;;;6.01;78.91
6096;BME280;25081;42.698;23.298;2024-03-25T06:43:33;94295.06;;;6.23;77.90
6096;BME280;25081;42.698;23.298;2024-03-25T06:45:42;94291.86;;;6.65;77.24
6096;BME280;25081;42.698;23.298;2024-03-25T06:47:51;94299.10;;;6.85;76.12
6096;BME280;25081;42.698;23.298;2024-03-25T06:49:59;94301.84;;;7.42;74.65
6096;BME280;25081;42.698;23.298;2024-03-25T06:52:08;94308.25;;;8.43;70.62
6096;BME280;25081;42.698;23.298;2024-03-25T06:54:17;94301.66;;;8.04;69.77
6096;BME280;25081;42.698;23.298;2024-03-25T06:56:25;94312.07;;;7.96;71.84
6096;BME280;25081;42.698;23.298;2024-03-25T06:58:34;94311.45;;;7.83;70.37
6096;BME280;25081;42.698;23.298;2024-03-25T07:00:43;94296.70;;;10.00;63.80
6096;BME280;25081;42.698;23.298;2024-03-25T07:02:52;94271.19;;;10.64;60.15
6096;BME280;25081;42.698;23.298;2024-03-25T07:05:00;94303.50;;;9.93;63.37
6096;BME280;25081;42.698;23.298;2024-03-25T07:07:09;94302.53;;;10.73;60.82
6096;BME280;25081;42.698;23.298;2024-03-25T07:09:17;94297.11;;;10.85;60.26
6096;BME280;25081;42.698;23.298;2024-03-25T07:11:26;94308.73;;;10.02;60.23
6096;BME280;25081;42.698;23.298;2024-03-25T07:13:34;94315.83;;;9.97;60.96
6096;BME280;25081;42.698;23.298;2024-03-25T07:15:43;94307.05;;;11.09;58.50
6096;BME280;25081;42.698;23.298;2024-03-25T07:17:52;94299.68;;;10.80;58.74
6096;BME280;25081;42.698;23.298;2024-03-25T07:20:00;94324.14;;;10.00;60.68
6096;BME280;25081;42.698;23.298;2024-03-25T07:22:09;94309.18;;;9.31;62.58
6096;BME280;25081;42.698;23.298;2024-03-25T07:24:18;94332.08;;;8.97;63.68
6096;BME280;25081;42.698;23.298;2024-03-25T07:26:26;94326.82;;;9.60;61.79
6096;BME280;25081;42.698;23.298;2024-03-25T07:28:35;94316.40;;;12.38;55.15
6096;BME280;25081;42.698;23.298;2024-03-25T07:30:44;94322.51;;;11.87;52.82
6096;BME280;25081;42.698;23.298;2024-03-25T07:32:52;94313.12;;;13.24;50.68
6096;BME280;25081;42.698;23.298;2024-03-25T07:35:01;94307.18;;;13.67;49.81
6096;BME280;25081;42.698;23.298;2024-03-25T07:37:09;94308.32;;;14.77;46.63
6096;BME280;25081;42.698;23.298;2024-03-25T07:39:18;94302.89;;;16.20;43.50
6096;BME280;25081;42.698;23.298;2024-03-25T07:41:27;94306.55;;;16.40;43.46
6096;BME280;25081;42.698;23.298;2024-03-25T07:43:35;94305.70;;;13.99;46.69
6096;BME280;25081;42.698;23.298;2024-03-25T07:45:44;94308.52;;;15.49;43.95
6096;BME280;25081;42.698;23.298;2024-03-25T07:47:52;94303.87;;;16.40;42.23
6096;BME280;25081;42.698;23.298;2024-03-25T07:50:01;94317.39;;;15.42;43.03
6096;BME280;25081;42.698;23.298;2024-03-25T07:52:10;94317.88;;;14.29;45.44
6096;BME280;25081;42.698;23.298;2024-03-25T07:54:18;94307.57;;;13.98;46.42
6096;BME280;25081;42.698;23.298;2024-03-25T07:56:27;94308.77;;;14.43;44.77
6096;BME280;25081;42.698;23.298;2024-03-25T07:58:35;94309.08;;;15.31;42.32
6096;BME280;25081;42.698;23.298;2024-03-25T08:00:44;94307.36;;;16.90;40.04
6096;BME280;25081;42.698;23.298;2024-03-25T08:02:53;94310.88;;;16.41;40.35
6096;BME280;25081;42.698;23.298;2024-03-25T08:05:01;94309.55;;;15.76;43.15
6096;BME280;25081;42.698;23.298;2024-03-25T08:07:10;94314.66;;;15.60;43.34
6096;BME280;25081;42.698;23.298;2024-03-25T08:09:19;94316.88;;;16.25;41.46
6096;BME280;25081;42.698;23.298;2024-03-25T08:11:27;94319.13;;;16.96;39.32
6096;BME280;25081;42.698;23.298;2024-03-25T08:13:36;94319.13;;;16.96;39.32
6096;BME280;25081;42.698;23.298;2024-03-25T08:15:45;94320.75;;;18.51;37.18
6096;BME280;25081;42.698;23.298;2024-03-25T08:17:54;94316.21;;;15.94;39.96
6096;BME280;25081;42.698;23.298;2024-03-25T08:20:02;94317.53;;;16.95;39.48
6096;BME280;25081;42.698;23.298;2024-03-25T08:22:11;94334.05;;;16.73;39.85
6096;BME280;25081;42.698;23.298;2024-03-25T08:24:20;94334.05;;;17.49;37.25
6096;BME280;25081;42.698;23.298;2024-03-25T08:26:29;94335.02;;;16.53;37.93
6096;BME280;25081;42.698;23.298;2024-03-25T08:28:37;94340.50;;;16.30;39.19
6096;BME280;25081;42.698;23.298;2024-03-25T08:30:46;94340.50;;;16.30;39.19
6096;BME280;25081;42.698;23.298;2024-03-25T08:32:54;94337.59;;;18.43;35.37
6096;BME280;25081;42.698;23.298;2024-03-25T08:35:04;94334.57;;;19.55;33.70
6096;BME280;25081;42.698;23.298;2024-03-25T08:37:12;94347.59;;;16.68;37.06
6096;BME280;25081;42.698;23.298;2024-03-25T08:39:21;94347.59;;;16.68;37.06
6096;BME280;25081;42.698;23.298;2024-03-25T08:41:30;94346.23;;;17.73;35.31
6096;BME280;25081;42.698;23.298;2024-03-25T08:43:38;94344.92;;;17.05;36.60
6096;BME280;25081;42.698;23.298;2024-03-25T08:45:47;94344.00;;;14.80;39.75
6096;BME280;25081;42.698;23.298;2024-03-25T08:47:56;94344.00;;;14.80;39.75
6096;BME280;25081;42.698;23.298;2024-03-25T08:50:05;94365.61;;;12.98;44.96
6096;BME280;25081;42.698;23.298;2024-03-25T08:52:14;94366.38;;;12.15;47.96
6096;BME280;25081;42.698;23.298;2024-03-25T08:54:23;94370.19;;;13.80;45.44
6096;BME280;25081;42.698;23.298;2024-03-25T08:56:31;94374.41;;;12.94;47.31
6096;BME280;25081;42.698;23.298;2024-03-25T08:58:40;94380.97;;;12.81;47.13
6096;BME280;25081;42.698;23.298;2024-03-25T09:00:49;94374.97;;;11.95;47.75
6096;BME280;25081;42.698;23.298;2024-03-25T09:02:57;94384.52;;;11.89;47.58
6096;BME280;25081;42.698;23.298;2024-03-25T09:05:07;94375.28;;;11.22;50.28
6096;BME280;25081;42.698;23.298;2024-03-25T09:07:16;94384.21;;;11.30;51.11
6096;BME280;25081;42.698;23.298;2024-03-25T09:09:24;94390.44;;;10.25;53.17
6096;BME280;25081;42.698;23.298;2024-03-25T09:11:51;94390.02;;;9.93;53.75
6096;BME280;25081;42.698;23.298;2024-03-25T09:14:00;94387.52;;;10.41;53.43
6096;BME280;25081;42.698;23.298;2024-03-25T09:16:08;94386.79;;;10.60;52.46
6096;BME280;25081;42.698;23.298;2024-03-25T09:18:17;94384.20;;;10.96;51.90
6096;BME280;25081;42.698;23.298;2024-03-25T09:20:26;94387.06;;;11.62;49.84
6096;BME280;25081;42.698;23.298;2024-03-25T09:22:35;94390.75;;;10.72;51.01
6096;BME280;25081;42.698;23.298;2024-03-25T09:24:43;94404.22;;;10.11;52.58
6096;BME280;25081;42.698;23.298;2024-03-25T09:26:52;94379.97;;;9.95;54.28
6096;BME280;25081;42.698;23.298;2024-03-25T09:29:01;94398.66;;;9.98;54.38
6096;BME280;25081;42.698;23.298;2024-03-25T09:31:09;94404.27;;;10.13;54.72
6096;BME280;25081;42.698;23.298;2024-03-25T09:33:18;94394.58;;;10.78;53.01
6096;BME280;25081;42.698;23.298;2024-03-25T09:35:26;94401.58;;;10.82;52.59
6096;BME280;25081;42.698;23.298;2024-03-25T09:37:35;94396.08;;;10.72;53.08
6096;BME280;25081;42.698;23.298;2024-03-25T09:39:44;94395.44;;;10.98;52.91
6096;BME280;25081;42.698;23.298;2024-03-25T09:41:54;94392.75;;;11.12;52.91
6096;BME280;25081;42.698;23.298;2024-03-25T09:44:01;94385.56;;;10.51;53.67
6096;BME280;25081;42.698;23.298;2024-03-25T09:46:10;94397.20;;;10.19;54.49
6096;BME280;25081;42.698;23.298;2024-03-25T09:48:19;94390.63;;;10.36;54.75
6096;BME280;25081;42.698;23.298;2024-03-25T09:50:27;94387.70;;;10.51;54.48
6096;BME280;25081;42.698;23.298;2024-03-25T09:52:36;94388.68;;;10.76;53.22
6096;BME280;25081;42.698;23.298;2024-03-25T09:54:45;94381.91;;;11.38;51.79
6096;BME280;25081;42.698;23.298;2024-03-25T09:56:53;94382.08;;;11.12;50.58
6096;BME280;25081;42.698;23.298;2024-03-25T09:59:02;94392.75;;;10.50;51.76
6096;BME280;25081;42.698;23.298;2024-03-25T10:01:11;94393.59;;;10.68;52.14
6096;BME280;25081;42.698;23.298;2024-03-25T10:03:20;94390.78;;;10.74;51.40
6096;BME280;25081;42.698;23.298;2024-03-25T10:05:28;94400.19;;;10.63;53.85
6096;BME280;25081;42.698;23.298;2024-03-25T10:07:37;94401.19;;;10.45;53.79
6096;BME280;25081;42.698;23.298;2024-03-25T10:09:46;94401.89;;;10.40;52.43
6096;BME280;25081;42.698;23.298;2024-03-25T10:11:54;94406.13;;;9.98;53.45
6096;BME280;25081;42.698;23.298;2024-03-25T10:14:03;94408.98;;;9.83;53.05
6096;BME280;25081;42.698;23.298;2024-03-25T10:16:12;94406.64;;;10.12;52.93
6096;BME280;25081;42.698;23.298;2024-03-25T10:18:20;94410.72;;;10.15;52.87
6096;BME280;25081;42.698;23.298;2024-03-25T10:20:29;94404.41;;;10.32;52.22
6096;BME280;25081;42.698;23.298;2024-03-25T10:22:42;94400.10;;;10.17;52.94
6096;BME280;25081;42.698;23.298;2024-03-25T10:24:51;94404.41;;;10.32;52.78
6096;BME280;25081;42.698;23.298;2024-03-25T10:26:59;94402.55;;;9.67;53.69
6096;BME280;25081;42.698;23.298;2024-03-25T10:29:08;94408.09;;;10.17;53.47
6096;BME280;25081;42.698;23.298;2024-03-25T10:31:19;94399.70;;;10.11;51.78
6096;BME280;25081;42.698;23.298;2024-03-25T10:33:28;94401.41;;;10.29;51.32
6096;BME280;25081;42.698;23.298;2024-03-25T10:35:37;94395.05;;;10.18;51.08
6096;BME280;25081;42.698;23.298;2024-03-25T10:37:45;94393.61;;;9.99;51.22
6096;BME280;25081;42.698;23.298;2024-03-25T10:39:54;94400.23;;;9.96;49.96
6096;BME280;25081;42.698;23.298;2024-03-25T10:42:03;94396.47;;;10.64;49.30
6096;BME280;25081;42.698;23.298;2024-03-25T10:44:11;94400.53;;;11.16;47.17
6096;BME280;25081;42.698;23.298;2024-03-25T10:46:21;94394.10;;;10.98;47.50
6096;BME280;25081;42.698;23.298;2024-03-25T10:48:30;94399.65;;;10.94;47.03
6096;BME280;25081;42.698;23.298;2024-03-25T10:50:38;94390.73;;;11.03;47.11
6096;BME280;25081;42.698;23.298;2024-03-25T10:52:46;94385.78;;;11.67;46.67
6096;BME280;25081;42.698;23.298;2024-03-25T10:54:56;94382.25;;;11.42;46.38
6096;BME280;25081;42.698;23.298;2024-03-25T10:57:05;94381.92;;;12.43;44.80
6096;BME280;25081;42.698;23.298;2024-03-25T10:59:14;94380.53;;;12.13;45.88
6096;BME280;25081;42.698;23.298;2024-03-25T11:01:22;94387.52;;;11.95;45.50
6096;BME280;25081;42.698;23.298;2024-03-25T11:03:31;94398.89;;;11.13;46.97
6096;BME280;25081;42.698;23.298;2024-03-25T11:05:40;94399.17;;;11.31;46.81
6096;BME280;25081;42.698;23.298;2024-03-25T11:07:48;94393.95;;;11.22;46.96
6096;BME280;25081;42.698;23.298;2024-03-25T11:10:03;94389.55;;;11.13;46.42
6096;BME280;25081;42.698;23.298;2024-03-25T11:12:12;94385.38;;;10.86;46.93
6096;BME280;25081;42.698;23.298;2024-03-25T11:14:24;94382.75;;;11.22;46.43
6096;BME280;25081;42.698;23.298;2024-03-25T11:16:31;94388.09;;;11.78;45.81
6096;BME280;25081;42.698;23.298;2024-03-25T11:18:39;94386.37;;;11.50;46.67
6096;BME280;25081;42.698;23.298;2024-03-25T11:21:00;94387.64;;;11.83;46.58
6096;BME280;25081;42.698;23.298;2024-03-25T11:23:12;94397.63;;;11.73;47.33
6096;BME280;25081;42.698;23.298;2024-03-25T11:25:20;94401.25;;;11.65;47.84
6096;BME280;25081;42.698;23.298;2024-03-25T11:27:29;94407.98;;;11.14;49.83
6096;BME280;25081;42.698;23.298;2024-03-25T11:29:38;94401.16;;;11.21;50.55
6096;BME280;25081;42.698;23.298;2024-03-25T11:31:46;94413.91;;;11.19;51.55